createdAt,value
2023-03-20T00:02:09.367Z,58.70
2023-03-20T00:04:51.108Z,56.00
2023-03-20T00:07:28.207Z,56.10
2023-03-20T00:10:04.964Z,55.10
2023-03-20T00:12:45.185Z,56.33
2023-03-20T00:15:39.763Z,56.43
2023-03-20T00:18:24.345Z,55.87
2023-03-20T00:21:10.433Z,57.10
2023-03-20T00:23:51.909Z,58.47
2023-03-20T00:26:31.631Z,57.13
2023-03-20T00:29:09.658Z,57.37
2023-03-20T00:31:49.078Z,57.50
2023-03-20T00:34:28.810Z,57.13
2023-03-20T00:37:09.653Z,58.50
2023-03-20T00:39:46.678Z,57.27
2023-03-20T00:42:31.240Z,54.90
2023-03-20T00:45:08.677Z,58.23
2023-03-20T00:47:49.555Z,56.77
2023-03-20T00:50:28.112Z,55.00
2023-03-20T00:53:07.807Z,55.33
2023-03-20T00:55:48.279Z,56.63
2023-03-20T00:58:24.387Z,56.30
2023-03-20T01:01:03.184Z,54.87
2023-03-20T01:03:42.406Z,55.07
2023-03-20T01:06:20.822Z,55.97
2023-03-20T01:09:03.137Z,55.67
2023-03-20T01:11:44.365Z,54.93
2023-03-20T01:14:36.866Z,56.90
2023-03-20T01:17:28.221Z,56.07
2023-03-20T01:20:08.312Z,54.37
2023-03-20T01:22:53.587Z,56.97
2023-03-20T01:25:38.872Z,56.30
2023-03-20T01:28:26.283Z,59.40
2023-03-20T01:31:03.572Z,57.40
2023-03-20T01:33:44.341Z,57.57
2023-03-20T01:36:31.527Z,58.57
2023-03-20T01:39:08.773Z,59.10
2023-03-20T01:41:46.980Z,60.73
2023-03-20T01:44:33.500Z,60.37
2023-03-20T01:47:20.097Z,60.73
2023-03-20T01:50:30.798Z,60.30
2023-03-20T01:53:27.501Z,60.10
2023-03-20T01:56:10.363Z,60.50
2023-03-20T01:59:03.056Z,61.27
2023-03-20T02:01:43.132Z,60.47
2023-03-20T02:04:42.756Z,62.57
2023-03-20T02:07:24.470Z,61.23
2023-03-20T02:10:22.501Z,62.37
2023-03-20T02:13:07.066Z,62.17
2023-03-20T02:16:09.381Z,60.07
2023-03-20T02:19:08.550Z,60.43
2023-03-20T02:22:26.885Z,60.50
2023-03-20T02:28:28.226Z,58.87
2023-03-20T02:31:22.710Z,55.23
2023-03-20T02:34:26.567Z,55.60
2023-03-20T02:37:49.624Z,54.43
2023-03-20T02:40:40.824Z,56.10
2023-03-20T02:43:38.110Z,55.77
2023-03-20T02:46:30.839Z,55.37
2023-03-20T02:49:15.436Z,54.27
2023-03-20T02:52:05.815Z,54.83
2023-03-20T02:55:08.538Z,55.17
2023-03-20T02:57:52.789Z,57.00
2023-03-20T03:00:37.310Z,57.40
2023-03-20T03:03:24.511Z,56.40
2023-03-20T03:06:04.819Z,54.83
2023-03-20T03:08:54.363Z,55.77
2023-03-20T03:11:35.748Z,54.93
2023-03-20T03:14:14.036Z,55.83
2023-03-20T03:16:54.011Z,57.00
2023-03-20T03:19:35.978Z,53.77
2023-03-20T03:22:17.744Z,54.13
2023-03-20T03:24:59.789Z,53.47
2023-03-20T03:27:46.517Z,51.50
2023-03-20T03:30:37.189Z,30.87
2023-03-20T03:33:28.362Z,30.17
2023-03-20T03:36:14.000Z,23.20
2023-03-20T03:38:57.724Z,21.70
2023-03-20T03:41:40.537Z,23.07
2023-03-20T03:44:28.682Z,22.07
2023-03-20T03:47:16.030Z,22.43
2023-03-20T03:49:59.321Z,21.87
2023-03-20T03:52:39.768Z,23.13
2023-03-20T03:55:23.586Z,23.07
2023-03-20T03:58:24.880Z,22.20
2023-03-20T04:01:07.812Z,22.77
2023-03-20T04:03:47.018Z,23.20
2023-03-20T04:06:29.456Z,22.70
2023-03-20T04:09:27.808Z,24.77
2023-03-20T04:12:05.314Z,24.20
2023-03-20T04:14:44.137Z,25.10
2023-03-20T04:17:27.398Z,23.47
2023-03-20T04:20:11.179Z,27.17
2023-03-20T04:22:48.695Z,25.93
2023-03-20T04:25:28.544Z,25.67
2023-03-20T04:28:10.501Z,26.87
2023-03-20T04:31:26.412Z,25.90
2023-03-20T04:34:24.485Z,26.27
2023-03-20T04:37:18.707Z,26.47
2023-03-20T04:40:05.951Z,26.13
2023-03-20T04:42:43.072Z,27.07
2023-03-20T04:45:23.254Z,26.37
2023-03-20T04:48:00.272Z,27.90
2023-03-20T04:50:49.706Z,27.40
2023-03-20T04:53:32.880Z,27.43
2023-03-20T04:56:14.875Z,27.90
2023-03-20T04:58:54.499Z,26.83
2023-03-20T05:01:31.726Z,28.17
2023-03-20T05:04:13.255Z,28.67
2023-03-20T05:07:00.427Z,29.67
2023-03-20T05:09:53.206Z,30.63
2023-03-20T05:12:34.606Z,29.27
2023-03-20T05:15:24.844Z,29.40
2023-03-20T05:18:24.120Z,27.63
2023-03-20T05:21:28.541Z,27.90
2023-03-20T05:24:22.771Z,28.20
2023-03-20T05:27:17.732Z,27.43
2023-03-20T05:29:56.936Z,26.87
2023-03-20T05:33:03.932Z,27.83
2023-03-20T05:36:09.470Z,27.97
2023-03-20T05:39:14.117Z,28.60
2023-03-20T05:42:14.232Z,28.73
2023-03-20T05:45:11.356Z,28.60
2023-03-20T05:47:58.766Z,28.17
2023-03-20T05:50:53.374Z,28.87
2023-03-20T05:53:51.188Z,28.53
2023-03-20T05:56:42.311Z,27.80
2023-03-20T05:59:47.700Z,26.93
2023-03-20T06:02:37.728Z,25.63
2023-03-20T06:05:38.320Z,28.90
2023-03-20T06:08:19.055Z,27.90
2023-03-20T06:10:57.872Z,27.83
2023-03-20T06:13:44.535Z,27.57
2023-03-20T06:16:51.515Z,29.50
2023-03-20T06:19:31.691Z,29.90
2023-03-20T06:22:08.391Z,29.80
2023-03-20T06:24:45.206Z,28.87
2023-03-20T06:27:29.012Z,29.13
2023-03-20T06:30:08.187Z,28.90
2023-03-20T06:32:52.118Z,29.93
2023-03-20T06:35:36.773Z,29.43
2023-03-20T06:38:16.366Z,29.77
2023-03-20T06:40:57.318Z,29.73
2023-03-20T06:43:35.394Z,31.87
2023-03-20T06:46:15.082Z,30.97
2023-03-20T06:49:03.820Z,31.73
2023-03-20T06:51:44.047Z,34.07
2023-03-20T06:54:32.525Z,31.90
2023-03-20T06:57:15.280Z,33.17
2023-03-20T07:00:05.114Z,32.30
2023-03-20T07:02:49.092Z,33.60
2023-03-20T07:05:38.480Z,29.10
2023-03-20T07:08:19.987Z,31.37
2023-03-20T07:11:02.255Z,32.97
2023-03-20T07:13:39.480Z,29.23
2023-03-20T07:16:33.903Z,29.67
2023-03-20T07:19:16.841Z,28.37
2023-03-20T07:22:15.078Z,28.07
2023-03-20T07:24:55.538Z,27.43
2023-03-20T07:27:39.671Z,31.07
2023-03-20T07:30:17.797Z,31.93
2023-03-20T07:32:58.725Z,35.47
2023-03-20T07:35:53.754Z,36.90
2023-03-20T07:38:49.147Z,33.60
2023-03-20T07:41:27.667Z,31.97
2023-03-20T07:44:16.156Z,33.43
2023-03-20T07:46:58.603Z,35.07
2023-03-20T07:49:37.436Z,35.50
2023-03-20T07:52:24.997Z,36.60
2023-03-20T07:55:10.669Z,35.27
2023-03-20T07:57:48.484Z,34.33
2023-03-20T08:00:34.668Z,36.63
2023-03-20T08:03:18.148Z,36.13
2023-03-20T08:05:57.375Z,37.83
2023-03-20T08:08:38.839Z,37.53
2023-03-20T08:11:34.842Z,35.50
2023-03-20T08:14:16.099Z,36.33
2023-03-20T08:17:10.357Z,34.23
2023-03-20T08:20:00.759Z,33.87
2023-03-20T08:22:42.441Z,36.27
2023-03-20T08:25:31.545Z,34.77
2023-03-20T08:28:13.497Z,35.73
2023-03-20T08:30:54.450Z,35.13
2023-03-20T08:33:38.773Z,35.00
2023-03-20T08:36:24.085Z,35.30
2023-03-20T08:39:12.347Z,36.87
2023-03-20T08:41:50.622Z,35.03
2023-03-20T08:44:35.456Z,35.43
2023-03-20T08:47:15.370Z,35.47
2023-03-20T08:50:04.314Z,35.40
2023-03-20T08:52:56.528Z,34.77
2023-03-20T08:55:39.735Z,36.23
2023-03-20T08:58:24.326Z,33.83
2023-03-20T09:01:04.753Z,34.97
2023-03-20T09:03:44.908Z,34.43
2023-03-20T09:06:28.293Z,34.20
2023-03-20T09:09:06.806Z,32.97
2023-03-20T09:11:45.272Z,33.10
2023-03-20T09:14:35.865Z,34.97
2023-03-20T09:17:16.684Z,33.90
2023-03-20T09:19:59.997Z,35.13
2023-03-20T09:22:40.647Z,36.80
2023-03-20T09:25:26.582Z,33.83
2023-03-20T09:28:07.698Z,34.43
2023-03-20T09:30:53.146Z,32.50
2023-03-20T09:33:41.391Z,31.73
2023-03-20T09:36:40.940Z,33.13
2023-03-20T09:39:23.264Z,33.60
2023-03-20T09:42:05.745Z,33.90
2023-03-20T09:44:58.048Z,32.90
2023-03-20T09:47:45.944Z,34.73
2023-03-20T09:50:37.890Z,34.17
2023-03-20T09:53:20.085Z,32.77
2023-03-20T09:56:04.373Z,33.03
2023-03-20T09:58:43.068Z,32.67
2023-03-20T10:01:23.010Z,32.90
2023-03-20T10:04:03.326Z,35.83
2023-03-20T10:06:55.513Z,33.37
2023-03-20T10:09:41.210Z,34.10
2023-03-20T10:12:45.786Z,31.63
2023-03-20T10:15:39.964Z,31.70
2023-03-20T10:18:31.560Z,29.30
2023-03-20T10:21:20.111Z,28.37
2023-03-20T10:24:13.021Z,26.73
2023-03-20T10:27:03.403Z,27.83
2023-03-20T10:29:56.204Z,26.93
2023-03-20T10:32:41.394Z,25.23
2023-03-20T10:35:31.464Z,26.67
2023-03-20T10:38:19.443Z,25.57
2023-03-20T10:41:01.545Z,25.63
2023-03-20T10:43:46.776Z,23.70
2023-03-20T10:46:40.618Z,24.23
2023-03-20T10:49:27.267Z,23.53
2023-03-20T10:52:19.086Z,23.70
2023-03-20T10:55:01.589Z,24.17
2023-03-20T10:57:51.109Z,23.13
2023-03-20T11:00:46.255Z,22.73
2023-03-20T11:03:30.507Z,21.70
2023-03-20T11:06:10.640Z,22.37
2023-03-20T11:08:59.882Z,22.60
2023-03-20T11:11:46.051Z,22.07
2023-03-20T11:14:35.519Z,24.17
2023-03-20T11:17:16.039Z,23.00
2023-03-20T11:19:57.826Z,23.60
2023-03-20T11:22:45.462Z,23.27
2023-03-20T11:25:42.414Z,23.13
2023-03-20T11:28:47.809Z,23.60
2023-03-20T11:31:38.922Z,21.97
2023-03-20T11:34:31.289Z,22.40
2023-03-20T11:37:26.141Z,22.63
2023-03-20T11:40:29.159Z,24.33
2023-03-20T11:43:17.406Z,23.43
2023-03-20T11:46:07.000Z,23.13
2023-03-20T11:49:19.949Z,23.03
2023-03-20T11:51:59.427Z,22.70
2023-03-20T11:54:41.055Z,22.77
2023-03-20T11:57:47.518Z,22.80
2023-03-20T12:00:28.468Z,24.07
2023-03-20T12:03:09.601Z,24.17
2023-03-20T12:05:55.941Z,23.33
2023-03-20T12:08:39.647Z,22.83
2023-03-20T12:11:41.008Z,23.83
2023-03-20T12:14:35.882Z,23.10
2023-03-20T12:17:41.852Z,24.53
2023-03-20T12:20:34.465Z,24.53
2023-03-20T12:23:33.815Z,24.93
2023-03-20T12:26:18.457Z,25.43
2023-03-20T12:29:01.663Z,26.50
2023-03-20T12:31:45.174Z,24.90
2023-03-20T12:34:44.830Z,26.70
2023-03-20T12:37:24.890Z,24.07
2023-03-20T12:40:10.097Z,26.47
2023-03-20T12:43:00.989Z,25.57
2023-03-20T12:45:50.682Z,28.17
2023-03-20T12:49:10.745Z,25.67
2023-03-20T12:51:58.709Z,26.03
2023-03-20T12:54:57.605Z,25.17
2023-03-20T12:57:58.183Z,25.17
2023-03-20T13:00:53.204Z,25.43
2023-03-20T13:03:54.194Z,25.90
2023-03-20T13:06:43.099Z,26.73
2023-03-20T13:10:14.722Z,26.63
2023-03-20T13:13:14.774Z,27.33
2023-03-20T13:16:19.104Z,27.47
2023-03-20T13:19:15.868Z,28.37
2023-03-20T13:22:12.007Z,28.17
2023-03-20T13:24:53.493Z,27.77
2023-03-20T13:27:45.438Z,27.87
2023-03-20T13:30:47.303Z,28.17
2023-03-20T13:33:44.153Z,27.60
2023-03-20T13:36:35.194Z,29.97
2023-03-20T13:39:22.827Z,27.07
2023-03-20T13:42:03.899Z,28.20
2023-03-20T13:44:49.235Z,29.73
2023-03-20T13:47:42.663Z,28.63
2023-03-20T13:50:38.924Z,28.33
2023-03-20T13:53:29.473Z,28.63
2023-03-20T13:56:20.240Z,28.73
2023-03-20T13:59:23.762Z,29.63
2023-03-20T14:02:14.454Z,29.77
2023-03-20T14:05:03.130Z,28.23
2023-03-20T14:07:45.865Z,29.93
2023-03-20T14:10:54.526Z,30.13
2023-03-20T14:13:36.737Z,29.57
2023-03-20T14:16:21.542Z,30.80
2023-03-20T14:19:20.604Z,30.60
2023-03-20T14:22:10.773Z,30.53
2023-03-20T14:24:58.075Z,31.30
2023-03-20T14:27:45.991Z,31.23
2023-03-20T14:30:51.738Z,31.37
2023-03-20T14:33:40.669Z,31.33
2023-03-20T14:36:29.006Z,31.63
2023-03-20T14:39:40.665Z,32.33
2023-03-20T14:42:47.844Z,31.03
2023-03-20T14:46:01.637Z,32.53
2023-03-20T14:48:53.250Z,31.53
2023-03-20T14:51:39.193Z,33.20
2023-03-20T14:54:38.028Z,33.37
2023-03-20T14:57:48.794Z,34.30
2023-03-20T15:00:41.490Z,34.07
2023-03-20T15:03:27.132Z,33.63
2023-03-20T15:06:14.837Z,33.93
2023-03-20T15:08:58.227Z,34.07
2023-03-20T15:11:51.510Z,35.43
2023-03-20T15:14:38.559Z,35.03
2023-03-20T15:17:24.632Z,36.07
2023-03-20T15:20:15.549Z,34.47
2023-03-20T15:23:08.831Z,34.40
2023-03-20T15:25:53.478Z,36.10
2023-03-20T15:28:39.516Z,35.30
2023-03-20T15:31:31.847Z,36.23
2023-03-20T15:34:16.063Z,36.57
2023-03-20T15:36:59.917Z,37.33
2023-03-20T15:39:52.088Z,36.73
2023-03-20T15:42:33.958Z,37.00
2023-03-20T15:45:30.749Z,39.70
2023-03-20T15:48:13.372Z,38.80
2023-03-20T15:51:02.516Z,40.03
2023-03-20T15:53:46.091Z,39.30
2023-03-20T15:56:24.206Z,40.07
2023-03-20T15:59:02.628Z,39.87
2023-03-20T16:01:41.621Z,40.30
2023-03-20T16:04:20.315Z,40.50
2023-03-20T16:07:08.275Z,40.13
2023-03-20T16:09:52.346Z,42.57
2023-03-20T16:12:28.909Z,43.10
2023-03-20T16:15:08.995Z,42.27
2023-03-20T16:17:48.098Z,42.17
2023-03-20T16:20:27.459Z,40.80
2023-03-20T16:23:10.186Z,43.13
2023-03-20T16:25:50.900Z,42.03
2023-03-20T16:28:30.460Z,43.00
2023-03-20T16:31:18.856Z,43.60
2023-03-20T16:34:02.560Z,43.63
2023-03-20T16:36:41.910Z,43.23
2023-03-20T16:39:26.495Z,44.13
2023-03-20T16:42:29.487Z,44.83
2023-03-20T16:45:14.053Z,45.00
2023-03-20T16:47:55.419Z,45.27
2023-03-20T16:50:45.193Z,46.97
2023-03-20T16:53:26.281Z,45.50
2023-03-20T16:56:07.252Z,46.93
2023-03-20T16:58:50.649Z,46.37
2023-03-20T17:01:31.537Z,45.77
2023-03-20T17:04:23.407Z,45.67
2023-03-20T17:07:06.136Z,46.40
2023-03-20T17:10:02.937Z,47.60
2023-03-20T17:12:40.323Z,47.33
2023-03-20T17:15:21.036Z,46.80
2023-03-20T17:18:01.966Z,48.63
2023-03-20T17:20:38.311Z,47.90
2023-03-20T17:23:21.591Z,46.47
2023-03-20T17:26:01.391Z,47.53
2023-03-20T17:28:42.073Z,48.70
2023-03-20T17:31:21.200Z,47.60
2023-03-20T17:34:00.030Z,50.07
2023-03-20T17:36:38.188Z,49.47
2023-03-20T17:39:28.221Z,50.27
2023-03-20T17:42:06.627Z,49.30
2023-03-20T17:44:49.076Z,50.00
2023-03-20T17:47:28.367Z,49.17
2023-03-20T17:50:04.855Z,48.83
2023-03-20T17:52:41.023Z,50.37
2023-03-20T17:55:21.226Z,49.80
2023-03-20T17:57:57.451Z,49.47
2023-03-20T18:00:34.160Z,49.03
2023-03-20T18:03:10.531Z,51.10
2023-03-20T18:05:47.357Z,51.10
2023-03-20T18:08:30.012Z,50.43
2023-03-20T18:11:08.389Z,50.03
2023-03-20T18:13:46.037Z,49.23
2023-03-20T18:16:33.167Z,49.73
2023-03-20T18:19:11.116Z,49.83
2023-03-20T18:21:46.903Z,49.83
2023-03-20T18:24:24.256Z,49.20
2023-03-20T18:27:02.894Z,49.50
2023-03-20T18:29:38.749Z,47.90
2023-03-20T18:32:16.817Z,49.27
2023-03-20T18:34:54.641Z,49.03
2023-03-20T18:37:30.362Z,46.70
2023-03-20T18:40:09.441Z,46.33
2023-03-20T18:42:46.862Z,47.23
2023-03-20T18:45:22.819Z,45.43
2023-03-20T18:47:58.390Z,47.53
2023-03-20T18:50:37.380Z,45.67
2023-03-20T18:53:15.651Z,46.87
2023-03-20T18:55:51.499Z,46.10
2023-03-20T18:58:31.528Z,45.17
2023-03-20T19:01:12.951Z,44.40
2023-03-20T19:03:55.362Z,47.80
2023-03-20T19:06:33.870Z,46.10
2023-03-20T19:09:12.302Z,43.77
2023-03-20T19:11:48.735Z,43.00
2023-03-20T19:14:27.628Z,44.83
2023-03-20T19:17:03.079Z,44.33
2023-03-20T19:19:37.899Z,43.53
2023-03-20T19:22:28.929Z,45.27
2023-03-20T19:25:04.844Z,43.70
2023-03-20T19:27:39.905Z,43.07
2023-03-20T19:30:31.245Z,45.47
2023-03-20T19:33:07.878Z,42.97
2023-03-20T19:36:01.693Z,45.67
2023-03-20T19:38:38.628Z,43.40
2023-03-20T19:41:16.344Z,43.17
2023-03-20T19:43:54.020Z,43.93
2023-03-20T19:46:40.047Z,42.07
2023-03-20T19:49:30.678Z,43.63
2023-03-20T19:52:08.155Z,44.03
2023-03-20T19:54:56.364Z,43.83
2023-03-20T19:57:37.386Z,43.73
2023-03-20T20:03:12.603Z,42.90
2023-03-20T20:05:48.359Z,43.60
2023-03-20T20:08:38.313Z,42.10
2023-03-20T20:11:18.231Z,44.83
2023-03-20T20:14:10.332Z,45.03
2023-03-20T20:16:50.185Z,44.97
2023-03-20T20:19:28.457Z,44.33
2023-03-20T20:22:22.731Z,44.63
2023-03-20T20:24:59.691Z,44.90
2023-03-20T20:27:34.649Z,45.70
2023-03-20T20:30:12.104Z,47.30
2023-03-20T20:32:47.801Z,45.40
2023-03-20T20:36:01.512Z,47.33
2023-03-20T20:38:44.711Z,46.13
2023-03-20T20:41:15.955Z,47.00
2023-03-20T20:44:15.144Z,45.57
2023-03-20T20:46:45.888Z,46.57
2023-03-20T20:49:22.507Z,47.70
2023-03-20T20:52:00.427Z,49.03
2023-03-20T20:54:36.041Z,47.87
2023-03-20T20:57:12.100Z,51.30
2023-03-20T20:59:47.043Z,50.87
2023-03-20T21:02:21.685Z,51.70
2023-03-20T21:04:56.953Z,50.73
2023-03-20T21:07:33.955Z,49.57
2023-03-20T21:10:10.966Z,51.90
2023-03-20T21:12:58.542Z,49.73
2023-03-20T21:15:34.439Z,50.93
2023-03-20T21:18:10.685Z,51.63
2023-03-20T21:20:46.438Z,50.97
2023-03-20T21:23:24.385Z,51.13
2023-03-20T21:25:59.322Z,50.20
2023-03-20T21:28:34.769Z,50.93
2023-03-20T21:31:23.848Z,50.93
2023-03-20T21:34:00.383Z,53.80
2023-03-20T21:36:35.609Z,50.87
2023-03-20T21:39:13.964Z,50.70
2023-03-20T21:41:49.762Z,52.03
2023-03-20T21:45:01.126Z,51.03
2023-03-20T21:50:52.885Z,50.43
2023-03-20T21:54:11.010Z,49.83
2023-03-20T21:59:38.702Z,51.03
2023-03-20T22:02:14.409Z,49.77
2023-03-20T22:05:28.761Z,50.07
2023-03-20T22:08:38.833Z,51.00
2023-03-20T22:14:40.561Z,50.70
2023-03-20T22:17:38.688Z,50.43
2023-03-20T22:20:16.153Z,52.53
2023-03-20T22:28:56.707Z,50.37
2023-03-20T22:35:04.978Z,45.73
2023-03-20T22:37:46.660Z,48.97
2023-03-20T22:40:48.586Z,49.60
2023-03-20T22:43:59.885Z,48.43
2023-03-20T22:46:10.070Z,48.37
2023-03-20T22:48:53.057Z,49.60
2023-03-20T22:51:35.772Z,50.90
2023-03-20T22:54:18.372Z,48.13
2023-03-20T22:56:54.316Z,47.70
2023-03-20T22:59:29.719Z,48.53
2023-03-20T23:02:05.591Z,48.60
2023-03-20T23:04:43.104Z,46.43
2023-03-20T23:07:18.477Z,47.23
2023-03-20T23:09:54.520Z,47.07
2023-03-20T23:12:30.051Z,47.20
2023-03-20T23:15:06.275Z,49.03
2023-03-20T23:17:43.286Z,48.73
2023-03-20T23:20:21.742Z,50.87
2023-03-20T23:22:57.220Z,47.90
2023-03-20T23:25:39.420Z,46.50
2023-03-20T23:28:16.399Z,46.93
2023-03-20T23:31:07.517Z,47.37
2023-03-20T23:33:52.298Z,49.90
2023-03-20T23:36:38.260Z,49.13
2023-03-20T23:39:16.279Z,46.97
2023-03-20T23:42:09.989Z,50.43
2023-03-20T23:44:56.496Z,46.77
2023-03-20T23:47:44.417Z,47.53
2023-03-20T23:50:28.640Z,47.27
2023-03-20T23:53:19.801Z,47.63
2023-03-20T23:55:57.889Z,46.60
2023-03-20T23:58:34.840Z,45.83
